Terminal Aerodrome Forecast
Issued by NWS Duluth, MN

Home | Current Version | Previous Version | Text Only | Print | Product List | Glossary On
Versions: 1 2 3 4 5 6 7 8 9 10 11 12 13 14 15 16 17 18 19 20
000
FTUS43 KDLH 230535
TAFINL
TAF
KINL 230535Z 2306/2406 16007KT P6SM BKN150
     FM231100 16008KT P6SM VCSH BKN050
     FM231500 21010G17KT 5SM -TSRA SCT025 BKN050CB
     FM232100 25009KT P6SM VCSH BKN050
     FM240100 25004KT P6SM SCT250=

USA.gov is the U.S. government's official web portal to all federal, state and local government web resources and services.